NJE209 NWWW-NTTB
Flight info
| Callsign | NJE209 |
|---|---|
| Flight time | 4h 52m |
| Altitude | 47000 |
| Route | ADKAD B578 TAPAP DCT ONURI |
| Aircraft | C750/M-SBDE3FGHRWXY/S |
Departure
| Time | 2026-05-05 20:27 |
|---|---|
| Airport | La Tontouta International Airport (NWWW) |
Arrival
| Time | 2026-05-06 01:19 |
|---|---|
| Airport | Bora Bora Airport (NTTB) |
| Time | Latitude | Longitude | Altitude | Speed | Heading |
|---|---|---|---|---|---|
| 2026-05-05 20:10 | -22.01516 | 166.21780 | 58 ft | 0 kts | 211° |
| 2026-05-05 20:21 | -22.01521 | 166.21777 | 58 ft | 2 kts | 213° |
| 2026-05-05 20:21 | -22.01542 | 166.21759 | 58 ft | 6 kts | 224° |
| 2026-05-05 20:22 | -22.01558 | 166.21717 | 58 ft | 4 kts | 291° |
| 2026-05-05 20:22 | -22.01533 | 166.21682 | 58 ft | 7 kts | 307° |
| 2026-05-05 20:22 | -22.01501 | 166.21630 | 57 ft | 8 kts | 300° |
| 2026-05-05 20:22 | -22.01474 | 166.21580 | 56 ft | 7 kts | 300° |
| 2026-05-05 20:23 | -22.01448 | 166.21536 | 55 ft | 6 kts | 304° |
| 2026-05-05 20:23 | -22.01427 | 166.21500 | 56 ft | 5 kts | 301° |
| 2026-05-05 20:23 | -22.01413 | 166.21460 | 57 ft | 7 kts | 274° |
| 2026-05-05 20:23 | -22.01443 | 166.21410 | 56 ft | 10 kts | 201° |
| 2026-05-05 20:24 | -22.01483 | 166.21347 | 55 ft | 12 kts | 297° |
| 2026-05-05 20:24 | -22.01438 | 166.21269 | 52 ft | 13 kts | 302° |
| 2026-05-05 20:24 | -22.01384 | 166.21177 | 55 ft | 16 kts | 301° |
| 2026-05-05 20:24 | -22.01322 | 166.21067 | 52 ft | 18 kts | 301° |
| 2026-05-05 20:25 | -22.01253 | 166.20941 | 54 ft | 21 kts | 300° |
| 2026-05-05 20:25 | -22.01181 | 166.20810 | 52 ft | 20 kts | 301° |
| 2026-05-05 20:25 | -22.01105 | 166.20713 | 48 ft | 12 kts | 312° |
| 2026-05-05 20:25 | -22.01113 | 166.20692 | 47 ft | 1 kts | 155° |
| 2026-05-05 20:26 | -22.01115 | 166.20695 | 47 ft | 1 kts | 125° |
| 2026-05-05 20:26 | -22.01116 | 166.20697 | 47 ft | 0 kts | 121° |
| 2026-05-05 20:26 | -22.01122 | 166.20708 | 47 ft | 8 kts | 120° |
| 2026-05-05 20:27 | -22.01300 | 166.21030 | 55 ft | 99 kts | 121° |
| 2026-05-05 20:27 | -22.01788 | 166.21859 | 219 ft | 143 kts | 122° |
| 2026-05-05 20:27 | -22.02338 | 166.22755 | 799 ft | 148 kts | 122° |
| 2026-05-05 20:27 | -22.03203 | 166.23529 | 1000 ft | 181 kts | 152° |
| 2026-05-05 20:28 | -22.04381 | 166.24147 | 1437 ft | 196 kts | 153° |
| 2026-05-05 20:28 | -22.05590 | 166.24813 | 2186 ft | 194 kts | 152° |
| 2026-05-05 20:28 | -22.06885 | 166.25189 | 2831 ft | 195 kts | 172° |
| 2026-05-05 20:28 | -22.08243 | 166.25304 | 3459 ft | 203 kts | 173° |
| 2026-05-05 20:29 | -22.09743 | 166.25444 | 3814 ft | 230 kts | 172° |
| 2026-05-05 20:29 | -22.11427 | 166.25595 | 4207 ft | 255 kts | 172° |
| 2026-05-05 20:29 | -22.13276 | 166.25757 | 4732 ft | 272 kts | 173° |
| 2026-05-05 20:29 | -22.15167 | 166.25923 | 5635 ft | 272 kts | 173° |
| 2026-05-05 20:30 | -22.17060 | 166.26092 | 6463 ft | 275 kts | 173° |
| 2026-05-05 20:30 | -22.18975 | 166.26267 | 7250 ft | 278 kts | 173° |
| 2026-05-05 20:30 | -22.20911 | 166.26451 | 8060 ft | 282 kts | 173° |
| 2026-05-05 20:30 | -22.22879 | 166.26649 | 8946 ft | 284 kts | 173° |
| 2026-05-05 20:31 | -22.24855 | 166.26847 | 9793 ft | 287 kts | 173° |
| 2026-05-05 20:31 | -22.26763 | 166.27496 | 10281 ft | 295 kts | 152° |
| 2026-05-05 20:31 | -22.28475 | 166.28874 | 10317 ft | 321 kts | 137° |
| 2026-05-05 20:31 | -22.30125 | 166.30642 | 10390 ft | 344 kts | 133° |
| 2026-05-05 20:32 | -22.31784 | 166.32520 | 11024 ft | 346 kts | 133° |
| 2026-05-05 20:32 | -22.33377 | 166.34493 | 11535 ft | 351 kts | 125° |
| 2026-05-05 20:32 | -22.34377 | 166.36906 | 12110 ft | 356 kts | 106° |
| 2026-05-05 20:32 | -22.34567 | 166.39554 | 12645 ft | 364 kts | 87° |
| 2026-05-05 20:33 | -22.34230 | 166.42280 | 13198 ft | 369 kts | 83° |
| 2026-05-05 20:33 | -22.33829 | 166.45032 | 13739 ft | 373 kts | 83° |
| 2026-05-05 20:33 | -22.33441 | 166.47825 | 14230 ft | 378 kts | 83° |
| 2026-05-05 20:33 | -22.33072 | 166.50643 | 14746 ft | 381 kts | 84° |
| 2026-05-05 20:34 | -22.32691 | 166.53503 | 15215 ft | 386 kts | 84° |
| 2026-05-05 20:34 | -22.32293 | 166.56381 | 15722 ft | 389 kts | 84° |
| 2026-05-05 20:34 | -22.31895 | 166.59279 | 16232 ft | 393 kts | 84° |
| 2026-05-05 20:34 | -22.31497 | 166.62221 | 16752 ft | 397 kts | 84° |
| 2026-05-05 20:35 | -22.31095 | 166.65183 | 17291 ft | 400 kts | 84° |
| 2026-05-05 20:35 | -22.30687 | 166.68170 | 17834 ft | 404 kts | 84° |
| 2026-05-05 20:35 | -22.30274 | 166.71184 | 18376 ft | 408 kts | 84° |
| 2026-05-05 20:35 | -22.29857 | 166.74238 | 18869 ft | 412 kts | 84° |
| 2026-05-05 20:36 | -22.29435 | 166.77315 | 19361 ft | 416 kts | 84° |
| 2026-05-05 20:36 | -22.29009 | 166.80414 | 19883 ft | 420 kts | 84° |
| 2026-05-05 20:36 | -22.28578 | 166.83555 | 20392 ft | 424 kts | 84° |
| 2026-05-05 20:36 | -22.28142 | 166.86719 | 20913 ft | 428 kts | 84° |
| 2026-05-05 20:37 | -22.27701 | 166.89916 | 21438 ft | 432 kts | 83° |
| 2026-05-05 20:37 | -22.27406 | 166.92049 | 21767 ft | 435 kts | 83° |
| 2026-05-05 20:37 | -22.26806 | 166.96390 | 22456 ft | 440 kts | 83° |
| 2026-05-05 20:37 | -22.26352 | 166.99669 | 22966 ft | 444 kts | 83° |
| 2026-05-05 20:38 | -22.25899 | 167.02936 | 23467 ft | 448 kts | 83° |
| 2026-05-05 20:38 | -22.25435 | 167.06274 | 23925 ft | 451 kts | 83° |
| 2026-05-05 20:38 | -22.24966 | 167.09635 | 24316 ft | 456 kts | 83° |
| 2026-05-05 20:38 | -22.24491 | 167.13045 | 24718 ft | 460 kts | 83° |
| 2026-05-05 20:39 | -22.24012 | 167.16483 | 25116 ft | 464 kts | 83° |
| 2026-05-05 20:39 | -22.23527 | 167.19948 | 25514 ft | 469 kts | 83° |
| 2026-05-05 20:39 | -22.23037 | 167.23446 | 25918 ft | 473 kts | 84° |
| 2026-05-05 20:39 | -22.22543 | 167.26968 | 26312 ft | 477 kts | 84° |
| 2026-05-05 20:40 | -22.22043 | 167.30530 | 26707 ft | 482 kts | 84° |
| 2026-05-05 20:40 | -22.21537 | 167.34125 | 27090 ft | 486 kts | 84° |
| 2026-05-05 20:40 | -22.21026 | 167.37747 | 27476 ft | 490 kts | 84° |
| 2026-05-05 20:40 | -22.20511 | 167.41402 | 27861 ft | 495 kts | 84° |
| 2026-05-05 20:41 | -22.19996 | 167.45042 | 28255 ft | 499 kts | 84° |
| 2026-05-05 20:41 | -22.19470 | 167.48756 | 28623 ft | 503 kts | 84° |
| 2026-05-05 20:41 | -22.18938 | 167.52503 | 28998 ft | 507 kts | 84° |
| 2026-05-05 20:41 | -22.18400 | 167.56288 | 29362 ft | 511 kts | 84° |
| 2026-05-05 20:42 | -22.18034 | 167.58860 | 29603 ft | 514 kts | 84° |
| 2026-05-05 20:42 | -22.17309 | 167.63957 | 29903 ft | 523 kts | 84° |
| 2026-05-05 20:42 | -22.16934 | 167.66582 | 30146 ft | 526 kts | 84° |
| 2026-05-05 20:42 | -22.16374 | 167.70488 | 30466 ft | 529 kts | 84° |
| 2026-05-05 20:43 | -22.15819 | 167.74364 | 30790 ft | 531 kts | 84° |
| 2026-05-05 20:43 | -22.15253 | 167.78311 | 31155 ft | 532 kts | 84° |
| 2026-05-05 20:43 | -22.14684 | 167.82253 | 31666 ft | 530 kts | 84° |
| 2026-05-05 20:43 | -22.14118 | 167.86187 | 32118 ft | 530 kts | 84° |
| 2026-05-05 20:44 | -22.13553 | 167.90108 | 32559 ft | 529 kts | 84° |
| 2026-05-05 20:44 | -22.12987 | 167.94021 | 33004 ft | 529 kts | 84° |
| 2026-05-05 20:44 | -22.12418 | 167.97950 | 33446 ft | 529 kts | 84° |
| 2026-05-05 20:44 | -22.11850 | 168.01865 | 33869 ft | 529 kts | 84° |
| 2026-05-05 20:45 | -22.10709 | 168.09713 | 34662 ft | 530 kts | 84° |
| 2026-05-05 20:45 | -22.10136 | 168.13641 | 35004 ft | 531 kts | 84° |
| 2026-05-05 20:45 | -22.09561 | 168.17583 | 35353 ft | 532 kts | 84° |
| 2026-05-05 20:46 | -22.08984 | 168.21525 | 35715 ft | 533 kts | 84° |
| 2026-05-05 20:46 | -22.08405 | 168.25473 | 36073 ft | 534 kts | 84° |
| 2026-05-05 20:46 | -22.07825 | 168.29429 | 36437 ft | 535 kts | 84° |
| 2026-05-05 20:46 | -22.07241 | 168.33397 | 36820 ft | 536 kts | 84° |
| 2026-05-05 20:47 | -22.06833 | 168.37392 | 37122 ft | 534 kts | 92° |
| 2026-05-05 20:47 | -22.06853 | 168.41385 | 37516 ft | 531 kts | 97° |
| 2026-05-05 20:47 | -22.07025 | 168.45357 | 37918 ft | 530 kts | 98° |
| 2026-05-05 20:47 | -22.07149 | 168.49334 | 38314 ft | 532 kts | 96° |
| 2026-05-05 20:48 | -22.07167 | 168.53329 | 38706 ft | 534 kts | 95° |
| 2026-05-05 20:48 | -22.07197 | 168.57337 | 39069 ft | 532 kts | 96° |
| 2026-05-05 20:48 | -22.07300 | 168.61263 | 39530 ft | 528 kts | 97° |
| 2026-05-05 20:48 | -22.07407 | 168.65216 | 40030 ft | 525 kts | 96° |
| 2026-05-05 20:49 | -22.07462 | 168.69146 | 40540 ft | 522 kts | 95° |
| 2026-05-05 20:49 | -22.07504 | 168.73039 | 41106 ft | 516 kts | 95° |
| 2026-05-05 20:49 | -22.07576 | 168.76890 | 41619 ft | 512 kts | 95° |
| 2026-05-05 20:49 | -22.07661 | 168.80714 | 42063 ft | 509 kts | 95° |
| 2026-05-05 20:50 | -22.07726 | 168.84522 | 42495 ft | 507 kts | 94° |
| 2026-05-05 20:50 | -22.07777 | 168.88315 | 42912 ft | 505 kts | 94° |
| 2026-05-05 20:50 | -22.07837 | 168.92091 | 43307 ft | 502 kts | 94° |
| 2026-05-05 20:50 | -22.07906 | 168.95850 | 43751 ft | 499 kts | 94° |
| 2026-05-05 20:51 | -22.07968 | 168.99581 | 44145 ft | 496 kts | 93° |
| 2026-05-05 20:51 | -22.08021 | 169.03257 | 44510 ft | 494 kts | 93° |
| 2026-05-05 20:51 | -22.08077 | 169.06951 | 44831 ft | 492 kts | 93° |
| 2026-05-05 20:51 | -22.08136 | 169.10638 | 45058 ft | 492 kts | 93° |
| 2026-05-05 20:52 | -22.08193 | 169.14328 | 45256 ft | 492 kts | 93° |
| 2026-05-05 20:52 | -22.08247 | 169.18021 | 45453 ft | 492 kts | 93° |
| 2026-05-05 20:52 | -22.08300 | 169.21715 | 45640 ft | 492 kts | 93° |
| 2026-05-05 20:52 | -22.08354 | 169.25401 | 45819 ft | 492 kts | 93° |
| 2026-05-05 20:53 | -22.08407 | 169.29095 | 45994 ft | 492 kts | 93° |
| 2026-05-05 20:53 | -22.08458 | 169.32794 | 46164 ft | 492 kts | 93° |
| 2026-05-05 20:53 | -22.08509 | 169.36484 | 46326 ft | 492 kts | 93° |
| 2026-05-05 20:53 | -22.08559 | 169.40173 | 46480 ft | 492 kts | 93° |
| 2026-05-05 20:54 | -22.08609 | 169.43867 | 46640 ft | 492 kts | 93° |
| 2026-05-05 20:54 | -22.08657 | 169.47562 | 46701 ft | 495 kts | 92° |
| 2026-05-05 20:54 | -22.08705 | 169.51275 | 46834 ft | 495 kts | 92° |
| 2026-05-05 20:54 | -22.08751 | 169.54933 | 46972 ft | 494 kts | 92° |
| 2026-05-05 20:55 | -22.08843 | 169.62356 | 47039 ft | 498 kts | 92° |
| 2026-05-05 20:55 | -22.08931 | 169.69866 | 47056 ft | 503 kts | 92° |
| 2026-05-05 20:56 | -22.09018 | 169.77457 | 47058 ft | 508 kts | 92° |
| 2026-05-05 20:56 | -22.09101 | 169.85102 | 47050 ft | 511 kts | 92° |
| 2026-05-05 20:57 | -22.09182 | 169.92791 | 47049 ft | 513 kts | 92° |
| 2026-05-05 20:57 | -22.09258 | 170.00443 | 47051 ft | 514 kts | 92° |
| 2026-05-05 20:58 | -22.09332 | 170.08156 | 47059 ft | 515 kts | 92° |
| 2026-05-05 20:58 | -22.09402 | 170.15880 | 47056 ft | 516 kts | 92° |
| 2026-05-05 20:59 | -22.09468 | 170.23628 | 47058 ft | 517 kts | 92° |
| 2026-05-05 20:59 | -22.09531 | 170.31405 | 47059 ft | 518 kts | 92° |
| 2026-05-05 21:00 | -22.09590 | 170.39136 | 47063 ft | 519 kts | 92° |
| 2026-05-05 21:00 | -22.09647 | 170.46977 | 47064 ft | 520 kts | 92° |
| 2026-05-05 21:01 | -22.09697 | 170.54717 | 47077 ft | 521 kts | 92° |
| 2026-05-05 21:01 | -22.09740 | 170.62549 | 47064 ft | 522 kts | 92° |
| 2026-05-05 21:02 | -22.09781 | 170.70374 | 47060 ft | 522 kts | 92° |
| 2026-05-05 21:02 | -22.09818 | 170.78214 | 47056 ft | 523 kts | 92° |
| 2026-05-05 21:03 | -22.09851 | 170.86076 | 47051 ft | 524 kts | 92° |
| 2026-05-05 21:03 | -22.09881 | 170.93893 | 47071 ft | 524 kts | 92° |
| 2026-05-05 21:04 | -22.09906 | 171.01766 | 47068 ft | 525 kts | 92° |
| 2026-05-05 21:04 | -22.09929 | 171.09637 | 47069 ft | 525 kts | 92° |
| 2026-05-05 21:05 | -22.09947 | 171.17517 | 47070 ft | 526 kts | 92° |
| 2026-05-05 21:05 | -22.09962 | 171.25414 | 47072 ft | 526 kts | 92° |
| 2026-05-05 21:06 | -22.09972 | 171.33314 | 47069 ft | 526 kts | 92° |
| 2026-05-05 21:06 | -22.09979 | 171.41167 | 47066 ft | 527 kts | 92° |
| 2026-05-05 21:07 | -22.09983 | 171.49118 | 47067 ft | 527 kts | 92° |
| 2026-05-05 21:07 | -22.09982 | 171.56970 | 47067 ft | 527 kts | 92° |
| 2026-05-05 21:08 | -22.09978 | 171.64877 | 47064 ft | 527 kts | 92° |
| 2026-05-05 21:08 | -22.09970 | 171.72803 | 47070 ft | 528 kts | 92° |
| 2026-05-05 21:09 | -22.09958 | 171.80736 | 47074 ft | 529 kts | 92° |
| 2026-05-05 21:09 | -22.09942 | 171.88668 | 47076 ft | 529 kts | 92° |
| 2026-05-05 21:10 | -22.09922 | 171.96616 | 47074 ft | 530 kts | 92° |
| 2026-05-05 21:10 | -22.09899 | 172.04528 | 47077 ft | 532 kts | 92° |
| 2026-05-05 21:11 | -22.09871 | 172.12520 | 47068 ft | 533 kts | 92° |
| 2026-05-05 21:11 | -22.09840 | 172.20525 | 47071 ft | 534 kts | 92° |
| 2026-05-05 21:12 | -22.09804 | 172.28544 | 47078 ft | 535 kts | 92° |
| 2026-05-05 21:12 | -22.09765 | 172.36587 | 47079 ft | 536 kts | 91° |
| 2026-05-05 21:13 | -22.09722 | 172.44590 | 47073 ft | 538 kts | 91° |
| 2026-05-05 21:13 | -22.09674 | 172.52681 | 47074 ft | 540 kts | 91° |
| 2026-05-05 21:14 | -22.09622 | 172.60794 | 47078 ft | 541 kts | 91° |
| 2026-05-05 21:14 | -22.09566 | 172.68923 | 47077 ft | 542 kts | 91° |
| 2026-05-05 21:15 | -22.09506 | 172.77059 | 47079 ft | 543 kts | 91° |
| 2026-05-05 21:15 | -22.09442 | 172.85218 | 47082 ft | 544 kts | 91° |
| 2026-05-05 21:16 | -22.09374 | 172.93387 | 47074 ft | 545 kts | 91° |
| 2026-05-05 21:16 | -22.09302 | 173.01521 | 47076 ft | 546 kts | 91° |
| 2026-05-05 21:17 | -22.09225 | 173.09706 | 47078 ft | 546 kts | 91° |
| 2026-05-05 21:17 | -22.09145 | 173.17905 | 47072 ft | 548 kts | 91° |
| 2026-05-05 21:18 | -22.09059 | 173.26143 | 47075 ft | 550 kts | 91° |
| 2026-05-05 21:18 | -22.08970 | 173.34396 | 47081 ft | 551 kts | 91° |
| 2026-05-05 21:19 | -22.08876 | 173.42679 | 47080 ft | 553 kts | 91° |
| 2026-05-05 21:19 | -22.08777 | 173.50981 | 47080 ft | 554 kts | 91° |
| 2026-05-05 21:20 | -22.08675 | 173.59252 | 47078 ft | 556 kts | 91° |
| 2026-05-05 21:20 | -22.08567 | 173.67608 | 47077 ft | 557 kts | 91° |
| 2026-05-05 21:21 | -22.08455 | 173.75985 | 47082 ft | 558 kts | 91° |
| 2026-05-05 21:21 | -22.08339 | 173.84352 | 47084 ft | 559 kts | 91° |
| 2026-05-05 21:22 | -22.08218 | 173.92733 | 47079 ft | 560 kts | 91° |
| 2026-05-05 21:22 | -22.08094 | 174.01079 | 47073 ft | 560 kts | 91° |
| 2026-05-05 21:23 | -22.07965 | 174.09488 | 47078 ft | 561 kts | 91° |
| 2026-05-05 21:23 | -22.07839 | 174.17912 | 47078 ft | 561 kts | 91° |
| 2026-05-05 21:24 | -22.07706 | 174.26342 | 47075 ft | 562 kts | 91° |
| 2026-05-05 21:24 | -22.07571 | 174.34781 | 47075 ft | 563 kts | 91° |
| 2026-05-05 21:25 | -22.07429 | 174.43220 | 47071 ft | 563 kts | 90° |
| 2026-05-05 21:25 | -22.07285 | 174.51672 | 47072 ft | 564 kts | 90° |
| 2026-05-05 21:26 | -22.07160 | 174.58698 | 47073 ft | 564 kts | 90° |
| 2026-05-05 21:26 | -22.06982 | 174.68530 | 47077 ft | 564 kts | 90° |
| 2026-05-05 21:27 | -22.06823 | 174.76991 | 47071 ft | 565 kts | 90° |
| 2026-05-05 21:27 | -22.06688 | 174.84033 | 47072 ft | 565 kts | 90° |
| 2026-05-05 21:28 | -22.06521 | 174.92506 | 47072 ft | 565 kts | 90° |
| 2026-05-05 21:28 | -22.06350 | 175.00991 | 47074 ft | 565 kts | 90° |
| 2026-05-05 21:29 | -22.06174 | 175.09474 | 47075 ft | 566 kts | 90° |
| 2026-05-05 21:29 | -22.05994 | 175.17964 | 47074 ft | 567 kts | 90° |
| 2026-05-05 21:30 | -22.05809 | 175.26457 | 47072 ft | 566 kts | 90° |
| 2026-05-05 21:30 | -22.05621 | 175.34935 | 47074 ft | 566 kts | 90° |
| 2026-05-05 21:31 | -22.05429 | 175.43380 | 47090 ft | 566 kts | 90° |
| 2026-05-05 21:31 | -22.05231 | 175.51870 | 47074 ft | 567 kts | 90° |
| 2026-05-05 21:32 | -22.05028 | 175.60376 | 47070 ft | 567 kts | 90° |
| 2026-05-05 21:32 | -22.04822 | 175.68874 | 47071 ft | 567 kts | 90° |
| 2026-05-05 21:33 | -22.04610 | 175.77388 | 47075 ft | 568 kts | 90° |
| 2026-05-05 21:33 | -22.04395 | 175.85892 | 47078 ft | 568 kts | 90° |
| 2026-05-05 21:34 | -22.04174 | 175.94420 | 47078 ft | 569 kts | 90° |
| 2026-05-05 21:34 | -22.03949 | 176.02956 | 47080 ft | 569 kts | 90° |
| 2026-05-05 21:35 | -22.03719 | 176.11481 | 47078 ft | 569 kts | 90° |
| 2026-05-05 21:35 | -22.03487 | 176.19964 | 47083 ft | 569 kts | 90° |
| 2026-05-05 21:36 | -22.03248 | 176.28505 | 47074 ft | 570 kts | 90° |
| 2026-05-05 21:36 | -22.03006 | 176.37033 | 47075 ft | 570 kts | 90° |
| 2026-05-05 21:37 | -22.02758 | 176.45582 | 47068 ft | 570 kts | 90° |
| 2026-05-05 21:37 | -22.02506 | 176.54124 | 47064 ft | 570 kts | 90° |
| 2026-05-05 21:38 | -22.02249 | 176.62665 | 47063 ft | 570 kts | 90° |
| 2026-05-05 21:38 | -22.01990 | 176.71144 | 47063 ft | 570 kts | 90° |
| 2026-05-05 21:39 | -22.01725 | 176.79679 | 47064 ft | 570 kts | 90° |
| 2026-05-05 21:39 | -22.01456 | 176.88207 | 47065 ft | 570 kts | 90° |
| 2026-05-05 21:40 | -22.01182 | 176.96744 | 47066 ft | 570 kts | 90° |
| 2026-05-05 21:40 | -22.00904 | 177.05268 | 47066 ft | 569 kts | 90° |
| 2026-05-05 21:41 | -22.00621 | 177.13806 | 47066 ft | 569 kts | 90° |
| 2026-05-05 21:41 | -22.00334 | 177.22336 | 47066 ft | 569 kts | 90° |
| 2026-05-05 21:42 | -22.00045 | 177.30802 | 47062 ft | 569 kts | 90° |
| 2026-05-05 21:42 | -21.99749 | 177.39334 | 47059 ft | 569 kts | 90° |
| 2026-05-05 21:43 | -21.99449 | 177.47861 | 47066 ft | 569 kts | 90° |
| 2026-05-05 21:43 | -21.99145 | 177.56379 | 47066 ft | 569 kts | 90° |
| 2026-05-05 21:44 | -21.98835 | 177.64918 | 47063 ft | 569 kts | 90° |
| 2026-05-05 21:44 | -21.98522 | 177.73444 | 47058 ft | 569 kts | 90° |
| 2026-05-05 21:45 | -21.98205 | 177.81967 | 47051 ft | 569 kts | 90° |
| 2026-05-05 21:45 | -21.97882 | 177.90506 | 47055 ft | 569 kts | 90° |
| 2026-05-05 21:46 | -21.97555 | 177.99026 | 47051 ft | 569 kts | 90° |
| 2026-05-05 21:46 | -21.97226 | 178.07504 | 47047 ft | 569 kts | 90° |
| 2026-05-05 21:47 | -21.96891 | 178.16035 | 47050 ft | 570 kts | 90° |
| 2026-05-05 21:47 | -21.96550 | 178.24569 | 47053 ft | 570 kts | 90° |
| 2026-05-05 21:48 | -21.96205 | 178.33117 | 47045 ft | 570 kts | 90° |
| 2026-05-05 21:48 | -21.95859 | 178.41593 | 47047 ft | 570 kts | 90° |
| 2026-05-05 21:49 | -21.95505 | 178.50127 | 47043 ft | 571 kts | 90° |
| 2026-05-05 21:49 | -21.95147 | 178.58676 | 47042 ft | 571 kts | 90° |
| 2026-05-05 21:50 | -21.94784 | 178.67223 | 47046 ft | 571 kts | 90° |
| 2026-05-05 21:50 | -21.94417 | 178.75764 | 47048 ft | 571 kts | 90° |
| 2026-05-05 21:51 | -21.94045 | 178.84313 | 47046 ft | 571 kts | 90° |
| 2026-05-05 21:51 | -21.93669 | 178.92865 | 47039 ft | 572 kts | 90° |
| 2026-05-05 21:52 | -21.93098 | 179.05647 | 47045 ft | 572 kts | 90° |
| 2026-05-05 21:53 | -21.92710 | 179.14204 | 47036 ft | 572 kts | 90° |
| 2026-05-05 21:53 | -21.92318 | 179.22764 | 47036 ft | 572 kts | 89° |
| 2026-05-05 21:54 | -21.91921 | 179.31321 | 47032 ft | 571 kts | 89° |
| 2026-05-05 21:54 | -21.91520 | 179.39877 | 47030 ft | 571 kts | 89° |
| 2026-05-05 21:55 | -21.91115 | 179.48425 | 47029 ft | 571 kts | 89° |
| 2026-05-05 21:55 | -21.90708 | 179.56923 | 47028 ft | 571 kts | 89° |
| 2026-05-05 21:56 | -21.90295 | 179.65467 | 47024 ft | 571 kts | 89° |
| 2026-05-05 21:56 | -21.89877 | 179.74008 | 47023 ft | 571 kts | 89° |
| 2026-05-05 21:57 | -21.89453 | 179.82564 | 47024 ft | 571 kts | 89° |
| 2026-05-05 21:57 | -21.89027 | 179.91104 | 47021 ft | 571 kts | 89° |
| 2026-05-05 21:58 | -21.88598 | 179.99591 | 47021 ft | 570 kts | 89° |
| 2026-05-05 21:58 | -21.88163 | -179.91877 | 47021 ft | 570 kts | 89° |
| 2026-05-05 21:59 | -21.87724 | -179.83353 | 47021 ft | 570 kts | 89° |
| 2026-05-05 21:59 | -21.87280 | -179.74830 | 47023 ft | 570 kts | 89° |
| 2026-05-05 22:00 | -21.86832 | -179.66315 | 47022 ft | 570 kts | 89° |
| 2026-05-05 22:00 | -21.86383 | -179.57844 | 47023 ft | 570 kts | 89° |
| 2026-05-05 22:01 | -21.85926 | -179.49327 | 47019 ft | 570 kts | 89° |
| 2026-05-05 22:01 | -21.85465 | -179.40798 | 47020 ft | 570 kts | 89° |
| 2026-05-05 22:02 | -21.85000 | -179.32286 | 47016 ft | 570 kts | 89° |
| 2026-05-05 22:02 | -21.84532 | -179.23808 | 47016 ft | 570 kts | 89° |
| 2026-05-05 22:03 | -21.84059 | -179.15324 | 47004 ft | 567 kts | 89° |
| 2026-05-05 22:03 | -21.83583 | -179.06835 | 47005 ft | 567 kts | 89° |
| 2026-05-05 22:04 | -21.83103 | -178.98361 | 47008 ft | 567 kts | 89° |
| 2026-05-05 22:04 | -21.82618 | -178.89889 | 47007 ft | 567 kts | 89° |
| 2026-05-05 22:05 | -21.82129 | -178.81419 | 47007 ft | 567 kts | 88° |
| 2026-05-05 22:05 | -21.81638 | -178.72989 | 47003 ft | 568 kts | 88° |
| 2026-05-05 22:06 | -21.81136 | -178.64450 | 47000 ft | 568 kts | 88° |
| 2026-05-05 22:06 | -21.80637 | -178.56020 | 47001 ft | 568 kts | 88° |
| 2026-05-05 22:07 | -21.80129 | -178.47526 | 47002 ft | 568 kts | 88° |
| 2026-05-05 22:07 | -21.79608 | -178.39039 | 47004 ft | 569 kts | 88° |
| 2026-05-05 22:08 | -21.79079 | -178.30552 | 46993 ft | 569 kts | 88° |
| 2026-05-05 22:08 | -21.78549 | -178.22052 | 46987 ft | 568 kts | 88° |
| 2026-05-05 22:09 | -21.78012 | -178.13570 | 46983 ft | 568 kts | 88° |
| 2026-05-05 22:09 | -21.77473 | -178.05090 | 46986 ft | 568 kts | 88° |
| 2026-05-05 22:10 | -21.76928 | -177.96604 | 46983 ft | 568 kts | 88° |
| 2026-05-05 22:10 | -21.76380 | -177.88125 | 46984 ft | 568 kts | 87° |
| 2026-05-05 22:11 | -21.75830 | -177.79690 | 46975 ft | 568 kts | 87° |
| 2026-05-05 22:11 | -21.75272 | -177.71205 | 46976 ft | 568 kts | 87° |
| 2026-05-05 22:12 | -21.74710 | -177.62722 | 46979 ft | 569 kts | 87° |
| 2026-05-05 22:12 | -21.74143 | -177.54223 | 46978 ft | 570 kts | 87° |
| 2026-05-05 22:13 | -21.73668 | -177.47149 | 46978 ft | 570 kts | 87° |
| 2026-05-05 22:13 | -21.73091 | -177.38634 | 46979 ft | 570 kts | 87° |
| 2026-05-05 22:14 | -21.72510 | -177.30113 | 46975 ft | 571 kts | 86° |
| 2026-05-05 22:14 | -21.71924 | -177.21580 | 46983 ft | 573 kts | 86° |
| 2026-05-05 22:15 | -21.71335 | -177.13076 | 46975 ft | 573 kts | 86° |
| 2026-05-05 22:15 | -21.70737 | -177.04503 | 46978 ft | 574 kts | 86° |
| 2026-05-05 22:16 | -21.70135 | -176.95936 | 46982 ft | 575 kts | 86° |
| 2026-05-05 22:16 | -21.69528 | -176.87356 | 46979 ft | 576 kts | 86° |
| 2026-05-05 22:17 | -21.68919 | -176.78826 | 46979 ft | 576 kts | 86° |
| 2026-05-05 22:17 | -21.68301 | -176.70229 | 46982 ft | 577 kts | 86° |
| 2026-05-05 22:18 | -21.67679 | -176.61625 | 46974 ft | 579 kts | 86° |
| 2026-05-05 22:18 | -21.67050 | -176.52992 | 46972 ft | 578 kts | 86° |
| 2026-05-05 22:19 | -21.66418 | -176.44377 | 46977 ft | 578 kts | 86° |
| 2026-05-05 22:19 | -21.65781 | -176.35763 | 46975 ft | 578 kts | 86° |
| 2026-05-05 22:20 | -21.65138 | -176.27140 | 46970 ft | 578 kts | 86° |
| 2026-05-05 22:20 | -21.64493 | -176.18534 | 46988 ft | 577 kts | 86° |
| 2026-05-05 22:21 | -21.63844 | -176.09944 | 46975 ft | 576 kts | 85° |
| 2026-05-05 22:21 | -21.63195 | -176.01413 | 46973 ft | 576 kts | 85° |
| 2026-05-05 22:22 | -21.62537 | -175.92826 | 46976 ft | 576 kts | 85° |
| 2026-05-05 22:22 | -21.61876 | -175.84250 | 46974 ft | 576 kts | 85° |
| 2026-05-05 22:23 | -21.61210 | -175.75668 | 46971 ft | 575 kts | 85° |
| 2026-05-05 22:23 | -21.60541 | -175.67107 | 46972 ft | 575 kts | 85° |
| 2026-05-05 22:24 | -21.59867 | -175.58534 | 46967 ft | 575 kts | 85° |
| 2026-05-05 22:24 | -21.59189 | -175.49976 | 46963 ft | 575 kts | 85° |
| 2026-05-05 22:25 | -21.58511 | -175.41461 | 46958 ft | 575 kts | 85° |
| 2026-05-05 22:25 | -21.57824 | -175.32901 | 46957 ft | 574 kts | 85° |
| 2026-05-05 22:26 | -21.57134 | -175.24355 | 46950 ft | 575 kts | 85° |
| 2026-05-05 22:26 | -21.56437 | -175.15776 | 46956 ft | 576 kts | 85° |
| 2026-05-05 22:27 | -21.55738 | -175.07225 | 46948 ft | 576 kts | 85° |
| 2026-05-05 22:27 | -21.55029 | -174.98610 | 46953 ft | 580 kts | 84° |
| 2026-05-05 22:28 | -21.54313 | -174.89956 | 46936 ft | 580 kts | 84° |
| 2026-05-05 22:28 | -21.53596 | -174.81340 | 46945 ft | 578 kts | 84° |
| 2026-05-05 22:29 | -21.52876 | -174.72754 | 46942 ft | 577 kts | 84° |
| 2026-05-05 22:29 | -21.52153 | -174.64174 | 46943 ft | 577 kts | 84° |
| 2026-05-05 22:30 | -21.51425 | -174.55592 | 46944 ft | 577 kts | 84° |
| 2026-05-05 22:30 | -21.50697 | -174.47058 | 46941 ft | 578 kts | 84° |
| 2026-05-05 22:31 | -21.49958 | -174.38459 | 46945 ft | 578 kts | 84° |
| 2026-05-05 22:31 | -21.49215 | -174.29861 | 46940 ft | 578 kts | 84° |
| 2026-05-05 22:32 | -21.48467 | -174.21251 | 46937 ft | 579 kts | 84° |
| 2026-05-05 22:32 | -21.47715 | -174.12651 | 46938 ft | 579 kts | 84° |
| 2026-05-05 22:33 | -21.46958 | -174.04040 | 46940 ft | 579 kts | 84° |
| 2026-05-05 22:33 | -21.46196 | -173.95433 | 46940 ft | 579 kts | 84° |
| 2026-05-05 22:34 | -21.45435 | -173.86881 | 46924 ft | 579 kts | 83° |
| 2026-05-05 22:34 | -21.44665 | -173.78283 | 46925 ft | 578 kts | 83° |
| 2026-05-05 22:35 | -21.43892 | -173.69684 | 46919 ft | 578 kts | 83° |
| 2026-05-05 22:35 | -21.43114 | -173.61095 | 46945 ft | 578 kts | 83° |
| 2026-05-05 22:36 | -21.42305 | -173.52429 | 46900 ft | 581 kts | 83° |
| 2026-05-05 22:36 | -21.41564 | -173.43871 | 46918 ft | 573 kts | 83° |
| 2026-05-05 22:37 | -21.40744 | -173.35362 | 46921 ft | 573 kts | 83° |
| 2026-05-05 22:37 | -21.39977 | -173.26843 | 46917 ft | 574 kts | 83° |
| 2026-05-05 22:38 | -21.39172 | -173.18356 | 46918 ft | 575 kts | 83° |
| 2026-05-05 22:38 | -21.38381 | -173.09817 | 46919 ft | 575 kts | 83° |
| 2026-05-05 22:39 | -21.37571 | -173.01273 | 46922 ft | 575 kts | 83° |
| 2026-05-05 22:39 | -21.36765 | -172.92731 | 46926 ft | 576 kts | 83° |
| 2026-05-05 22:40 | -21.35950 | -172.84181 | 46924 ft | 576 kts | 83° |
| 2026-05-05 22:40 | -21.35132 | -172.75629 | 46914 ft | 576 kts | 82° |
| 2026-05-05 22:41 | -21.34309 | -172.67079 | 46919 ft | 576 kts | 82° |
| 2026-05-05 22:41 | -21.33486 | -172.58579 | 46921 ft | 576 kts | 82° |
| 2026-05-05 22:42 | -21.32657 | -172.50047 | 46918 ft | 576 kts | 82° |
| 2026-05-05 22:42 | -21.31822 | -172.41510 | 46918 ft | 576 kts | 82° |
| 2026-05-05 22:43 | -21.30982 | -172.32971 | 46922 ft | 575 kts | 82° |
| 2026-05-05 22:43 | -21.30141 | -172.24452 | 46922 ft | 575 kts | 82° |
| 2026-05-05 22:44 | -21.29293 | -172.15917 | 46928 ft | 575 kts | 82° |
| 2026-05-05 22:44 | -21.28444 | -172.07409 | 46927 ft | 574 kts | 82° |
| 2026-05-05 22:45 | -21.27588 | -171.98892 | 46934 ft | 574 kts | 82° |
| 2026-05-05 22:45 | -21.26729 | -171.90363 | 46931 ft | 575 kts | 82° |
| 2026-05-05 22:46 | -21.25864 | -171.81840 | 46928 ft | 575 kts | 82° |
| 2026-05-05 22:46 | -21.24994 | -171.73303 | 46928 ft | 575 kts | 82° |
| 2026-05-05 22:47 | -21.24128 | -171.64845 | 46916 ft | 575 kts | 81° |
| 2026-05-05 22:47 | -21.23251 | -171.56326 | 46927 ft | 574 kts | 81° |
| 2026-05-05 22:48 | -21.22372 | -171.47827 | 46928 ft | 574 kts | 81° |
| 2026-05-05 22:48 | -21.21488 | -171.39324 | 46926 ft | 574 kts | 81° |
| 2026-05-05 22:49 | -21.20600 | -171.30823 | 46924 ft | 574 kts | 81° |
| 2026-05-05 22:49 | -21.19708 | -171.22324 | 46927 ft | 573 kts | 81° |
| 2026-05-05 22:50 | -21.18812 | -171.13828 | 46926 ft | 573 kts | 81° |
| 2026-05-05 22:50 | -21.17911 | -171.05336 | 46925 ft | 573 kts | 81° |
| 2026-05-05 22:51 | -21.17007 | -170.96845 | 46925 ft | 573 kts | 81° |
| 2026-05-05 22:51 | -21.16104 | -170.88413 | 46929 ft | 573 kts | 81° |
| 2026-05-05 22:52 | -21.15187 | -170.79882 | 46921 ft | 573 kts | 81° |
| 2026-05-05 22:52 | -21.14275 | -170.71445 | 46926 ft | 574 kts | 81° |
| 2026-05-05 22:53 | -21.13354 | -170.62954 | 46921 ft | 574 kts | 81° |
| 2026-05-05 22:53 | -21.12428 | -170.54469 | 46921 ft | 573 kts | 81° |
| 2026-05-05 22:54 | -21.11500 | -170.46001 | 46926 ft | 573 kts | 80° |
| 2026-05-05 22:54 | -21.10565 | -170.37513 | 46924 ft | 572 kts | 80° |
| 2026-05-05 22:55 | -21.09629 | -170.29044 | 46920 ft | 572 kts | 80° |
| 2026-05-05 22:55 | -21.08689 | -170.20588 | 46919 ft | 572 kts | 80° |
| 2026-05-05 22:56 | -21.07746 | -170.12131 | 46923 ft | 571 kts | 79° |
| 2026-05-05 22:56 | -21.06799 | -170.03693 | 46924 ft | 571 kts | 79° |
| 2026-05-05 22:57 | -21.05855 | -169.95315 | 46923 ft | 570 kts | 79° |
| 2026-05-05 22:57 | -21.04901 | -169.86881 | 46925 ft | 570 kts | 79° |
| 2026-05-05 22:58 | -21.03944 | -169.78460 | 46919 ft | 570 kts | 79° |
| 2026-05-05 22:58 | -21.02983 | -169.70037 | 46924 ft | 569 kts | 79° |
| 2026-05-05 22:59 | -21.02019 | -169.61629 | 46924 ft | 569 kts | 79° |
| 2026-05-05 22:59 | -21.01213 | -169.54633 | 46926 ft | 569 kts | 79° |
| 2026-05-05 23:00 | -20.99753 | -169.42016 | 46921 ft | 569 kts | 79° |
| 2026-05-05 23:00 | -20.98776 | -169.33620 | 46935 ft | 568 kts | 79° |
| 2026-05-05 23:01 | -20.97794 | -169.25215 | 46935 ft | 569 kts | 79° |
| 2026-05-05 23:01 | -20.96809 | -169.16817 | 46936 ft | 569 kts | 79° |
| 2026-05-05 23:02 | -20.95819 | -169.08427 | 46937 ft | 568 kts | 79° |
| 2026-05-05 23:02 | -20.94827 | -169.00041 | 46932 ft | 568 kts | 79° |
| 2026-05-05 23:03 | -20.93831 | -168.91662 | 46934 ft | 567 kts | 79° |
| 2026-05-05 23:03 | -20.92832 | -168.83297 | 46936 ft | 567 kts | 79° |
| 2026-05-05 23:04 | -20.91835 | -168.74980 | 46937 ft | 567 kts | 79° |
| 2026-05-05 23:04 | -20.90829 | -168.66620 | 46934 ft | 566 kts | 78° |
| 2026-05-05 23:05 | -20.89819 | -168.58268 | 46932 ft | 566 kts | 78° |
| 2026-05-05 23:05 | -20.88805 | -168.49916 | 46931 ft | 566 kts | 78° |
| 2026-05-05 23:06 | -20.87787 | -168.41562 | 46939 ft | 566 kts | 78° |
| 2026-05-05 23:06 | -20.86766 | -168.33221 | 46938 ft | 566 kts | 78° |
| 2026-05-05 23:07 | -20.85741 | -168.24876 | 46935 ft | 566 kts | 78° |
| 2026-05-05 23:07 | -20.84718 | -168.16589 | 46934 ft | 566 kts | 78° |
| 2026-05-05 23:08 | -20.83682 | -168.08230 | 46941 ft | 566 kts | 78° |
| 2026-05-05 23:08 | -20.82646 | -167.99899 | 46944 ft | 566 kts | 78° |
| 2026-05-05 23:09 | -20.81603 | -167.91544 | 46941 ft | 566 kts | 78° |
| 2026-05-05 23:09 | -20.80557 | -167.83205 | 46937 ft | 565 kts | 78° |
| 2026-05-05 23:10 | -20.79516 | -167.74932 | 46939 ft | 564 kts | 78° |
| 2026-05-05 23:10 | -20.78465 | -167.66620 | 46938 ft | 564 kts | 78° |
| 2026-05-05 23:11 | -20.77412 | -167.58319 | 46926 ft | 564 kts | 78° |
| 2026-05-05 23:11 | -20.76356 | -167.50034 | 46950 ft | 562 kts | 78° |
| 2026-05-05 23:12 | -20.75299 | -167.41764 | 46939 ft | 562 kts | 78° |
| 2026-05-05 23:12 | -20.74238 | -167.33499 | 46942 ft | 561 kts | 78° |
| 2026-05-05 23:13 | -20.73173 | -167.25237 | 46944 ft | 561 kts | 78° |
| 2026-05-05 23:13 | -20.72106 | -167.16992 | 46948 ft | 560 kts | 78° |
| 2026-05-05 23:14 | -20.71042 | -167.08799 | 46948 ft | 559 kts | 78° |
| 2026-05-05 23:14 | -20.69969 | -167.00564 | 46951 ft | 559 kts | 78° |
| 2026-05-05 23:15 | -20.68893 | -166.92340 | 46950 ft | 559 kts | 78° |
| 2026-05-05 23:15 | -20.67814 | -166.84129 | 46953 ft | 558 kts | 78° |
| 2026-05-05 23:16 | -20.66732 | -166.75922 | 46956 ft | 557 kts | 78° |
| 2026-05-05 23:16 | -20.65648 | -166.67731 | 46957 ft | 557 kts | 78° |
| 2026-05-05 23:17 | -20.64561 | -166.59545 | 46959 ft | 556 kts | 78° |
| 2026-05-05 23:17 | -20.63471 | -166.51371 | 46966 ft | 556 kts | 78° |
| 2026-05-05 23:18 | -20.62386 | -166.43259 | 46950 ft | 556 kts | 78° |
| 2026-05-05 23:18 | -20.61290 | -166.35097 | 46956 ft | 555 kts | 78° |
| 2026-05-05 23:19 | -20.60190 | -166.26932 | 46953 ft | 555 kts | 78° |
| 2026-05-05 23:19 | -20.59088 | -166.18784 | 46953 ft | 555 kts | 78° |
| 2026-05-05 23:20 | -20.57981 | -166.10627 | 46956 ft | 554 kts | 77° |
| 2026-05-05 23:20 | -20.56870 | -166.02476 | 46965 ft | 554 kts | 77° |
| 2026-05-05 23:21 | -20.55761 | -165.94362 | 46960 ft | 552 kts | 77° |
| 2026-05-05 23:21 | -20.54656 | -165.86314 | 46959 ft | 551 kts | 77° |
| 2026-05-05 23:22 | -20.53541 | -165.78212 | 46955 ft | 550 kts | 77° |
| 2026-05-05 23:22 | -20.52426 | -165.70146 | 46959 ft | 550 kts | 77° |
| 2026-05-05 23:23 | -20.51307 | -165.62075 | 46955 ft | 550 kts | 77° |
| 2026-05-05 23:23 | -20.50184 | -165.54006 | 46954 ft | 549 kts | 77° |
| 2026-05-05 23:24 | -20.49060 | -165.45954 | 46959 ft | 549 kts | 77° |
| 2026-05-05 23:24 | -20.47934 | -165.37909 | 46963 ft | 547 kts | 77° |
| 2026-05-05 23:25 | -20.46804 | -165.29880 | 46963 ft | 547 kts | 77° |
| 2026-05-05 23:25 | -20.45681 | -165.21919 | 46963 ft | 546 kts | 77° |
| 2026-05-05 23:26 | -20.44547 | -165.13909 | 46966 ft | 546 kts | 77° |
| 2026-05-05 23:26 | -20.43413 | -165.05918 | 46969 ft | 546 kts | 77° |
| 2026-05-05 23:27 | -20.42274 | -164.97921 | 46965 ft | 544 kts | 77° |
| 2026-05-05 23:27 | -20.41132 | -164.89945 | 46965 ft | 543 kts | 77° |
| 2026-05-05 23:28 | -20.39990 | -164.81982 | 46965 ft | 543 kts | 77° |
| 2026-05-05 23:28 | -20.38844 | -164.74023 | 46965 ft | 543 kts | 77° |
| 2026-05-05 23:29 | -20.37695 | -164.66072 | 46965 ft | 542 kts | 77° |
| 2026-05-05 23:29 | -20.36552 | -164.58180 | 46976 ft | 542 kts | 77° |
| 2026-05-05 23:30 | -20.35397 | -164.50237 | 46978 ft | 542 kts | 77° |
| 2026-05-05 23:30 | -20.34238 | -164.42293 | 46979 ft | 542 kts | 77° |
| 2026-05-05 23:31 | -20.33076 | -164.34349 | 46970 ft | 542 kts | 77° |
| 2026-05-05 23:31 | -20.31911 | -164.26412 | 46970 ft | 542 kts | 77° |
| 2026-05-05 23:32 | -20.30744 | -164.18492 | 46975 ft | 541 kts | 77° |
| 2026-05-05 23:32 | -20.29573 | -164.10570 | 46973 ft | 541 kts | 77° |
| 2026-05-05 23:33 | -20.28399 | -164.02644 | 46970 ft | 541 kts | 77° |
| 2026-05-05 23:33 | -20.27222 | -163.94730 | 46973 ft | 541 kts | 77° |
| 2026-05-05 23:34 | -20.26042 | -163.86824 | 46977 ft | 540 kts | 77° |
| 2026-05-05 23:34 | -20.24859 | -163.78913 | 46980 ft | 540 kts | 77° |
| 2026-05-05 23:35 | -20.23672 | -163.71010 | 46971 ft | 540 kts | 77° |
| 2026-05-05 23:35 | -20.22491 | -163.63162 | 46983 ft | 539 kts | 77° |
| 2026-05-05 23:36 | -20.21303 | -163.55297 | 46973 ft | 538 kts | 77° |
| 2026-05-05 23:36 | -20.20112 | -163.47442 | 46979 ft | 537 kts | 77° |
| 2026-05-05 23:37 | -20.18918 | -163.39584 | 46978 ft | 537 kts | 77° |
| 2026-05-05 23:37 | -20.17723 | -163.31745 | 46979 ft | 536 kts | 77° |
| 2026-05-05 23:38 | -20.16525 | -163.23908 | 46966 ft | 537 kts | 76° |
| 2026-05-05 23:38 | -20.15322 | -163.16066 | 46973 ft | 537 kts | 76° |
| 2026-05-05 23:39 | -20.14113 | -163.08211 | 46973 ft | 537 kts | 76° |
| 2026-05-05 23:39 | -20.12903 | -163.00367 | 46966 ft | 537 kts | 76° |
| 2026-05-05 23:40 | -20.11695 | -162.92564 | 46962 ft | 537 kts | 76° |
| 2026-05-05 23:40 | -20.10475 | -162.84706 | 46973 ft | 537 kts | 76° |
| 2026-05-05 23:41 | -20.09253 | -162.76856 | 46970 ft | 537 kts | 76° |
| 2026-05-05 23:41 | -20.08027 | -162.69008 | 46971 ft | 537 kts | 76° |
| 2026-05-05 23:42 | -20.06806 | -162.61213 | 46978 ft | 537 kts | 76° |
| 2026-05-05 23:42 | -20.05572 | -162.53363 | 46972 ft | 538 kts | 76° |
| 2026-05-05 23:43 | -20.04334 | -162.45505 | 46973 ft | 538 kts | 76° |
| 2026-05-05 23:43 | -20.03093 | -162.37653 | 46974 ft | 539 kts | 76° |
| 2026-05-05 23:44 | -20.02057 | -162.31115 | 46975 ft | 539 kts | 76° |
| 2026-05-05 23:44 | -20.00809 | -162.23260 | 46981 ft | 539 kts | 75° |
| 2026-05-05 23:45 | -19.99556 | -162.15396 | 46981 ft | 539 kts | 75° |
| 2026-05-05 23:45 | -19.98300 | -162.07538 | 46981 ft | 539 kts | 75° |
| 2026-05-05 23:46 | -19.97039 | -161.99672 | 46974 ft | 540 kts | 75° |
| 2026-05-05 23:46 | -19.95775 | -161.91806 | 46979 ft | 540 kts | 75° |
| 2026-05-05 23:47 | -19.94514 | -161.83990 | 46973 ft | 540 kts | 76° |
| 2026-05-05 23:47 | -19.93244 | -161.76131 | 46971 ft | 539 kts | 76° |
| 2026-05-05 23:48 | -19.91968 | -161.68267 | 46975 ft | 539 kts | 76° |
| 2026-05-05 23:48 | -19.90691 | -161.60412 | 46972 ft | 539 kts | 76° |
| 2026-05-05 23:49 | -19.89411 | -161.52560 | 46966 ft | 537 kts | 76° |
| 2026-05-05 23:49 | -19.88136 | -161.44769 | 46966 ft | 535 kts | 76° |
| 2026-05-05 23:50 | -19.86858 | -161.36977 | 46962 ft | 534 kts | 76° |
| 2026-05-05 23:50 | -19.85579 | -161.29199 | 46958 ft | 534 kts | 76° |
| 2026-05-05 23:51 | -19.84297 | -161.21428 | 46959 ft | 534 kts | 76° |
| 2026-05-05 23:51 | -19.83014 | -161.13671 | 46967 ft | 533 kts | 76° |
| 2026-05-05 23:52 | -19.81727 | -161.05912 | 46952 ft | 533 kts | 76° |
| 2026-05-05 23:52 | -19.80445 | -160.98201 | 46955 ft | 533 kts | 76° |
| 2026-05-05 23:53 | -19.79151 | -160.90445 | 46955 ft | 533 kts | 76° |
| 2026-05-05 23:53 | -19.77856 | -160.82699 | 46960 ft | 533 kts | 76° |
| 2026-05-05 23:54 | -19.76555 | -160.74937 | 46957 ft | 534 kts | 76° |
| 2026-05-05 23:54 | -19.75249 | -160.67175 | 46958 ft | 534 kts | 76° |
| 2026-05-05 23:55 | -19.73949 | -160.59462 | 46955 ft | 534 kts | 76° |
| 2026-05-05 23:55 | -19.72635 | -160.51690 | 46952 ft | 534 kts | 76° |
| 2026-05-05 23:56 | -19.71318 | -160.43920 | 46966 ft | 535 kts | 76° |
| 2026-05-05 23:56 | -19.69997 | -160.36148 | 46969 ft | 535 kts | 76° |
| 2026-05-05 23:57 | -19.68672 | -160.28374 | 46969 ft | 535 kts | 76° |
| 2026-05-05 23:57 | -19.67343 | -160.20600 | 46965 ft | 535 kts | 76° |
| 2026-05-05 23:58 | -19.66010 | -160.12817 | 46959 ft | 536 kts | 76° |
| 2026-05-05 23:58 | -19.64673 | -160.05036 | 46961 ft | 536 kts | 76° |
| 2026-05-05 23:59 | -19.63334 | -159.97260 | 46964 ft | 536 kts | 76° |
| 2026-05-05 23:59 | -19.61996 | -159.89519 | 46963 ft | 536 kts | 76° |
| 2026-05-06 00:00 | -19.60649 | -159.81737 | 46967 ft | 537 kts | 77° |
| 2026-05-06 00:00 | -19.59292 | -159.73920 | 46967 ft | 538 kts | 77° |
| 2026-05-06 00:01 | -19.57933 | -159.66108 | 46968 ft | 539 kts | 77° |
| 2026-05-06 00:01 | -19.56570 | -159.58294 | 46969 ft | 540 kts | 77° |
| 2026-05-06 00:02 | -19.55201 | -159.50467 | 46967 ft | 540 kts | 77° |
| 2026-05-06 00:02 | -19.53826 | -159.42626 | 46966 ft | 542 kts | 77° |
| 2026-05-06 00:03 | -19.52453 | -159.34817 | 46969 ft | 542 kts | 77° |
| 2026-05-06 00:03 | -19.51066 | -159.26945 | 46971 ft | 543 kts | 77° |
| 2026-05-06 00:04 | -19.49674 | -159.19072 | 46961 ft | 544 kts | 77° |
| 2026-05-06 00:04 | -19.48277 | -159.11185 | 46957 ft | 544 kts | 77° |
| 2026-05-06 00:05 | -19.46173 | -158.99353 | 46955 ft | 545 kts | 77° |
| 2026-05-06 00:06 | -19.44765 | -158.91453 | 46956 ft | 546 kts | 77° |
| 2026-05-06 00:06 | -19.43351 | -158.83548 | 46956 ft | 546 kts | 78° |
| 2026-05-06 00:07 | -19.41930 | -158.75619 | 46954 ft | 547 kts | 78° |
| 2026-05-06 00:07 | -19.40514 | -158.67744 | 46959 ft | 548 kts | 78° |
| 2026-05-06 00:08 | -19.39082 | -158.59799 | 46961 ft | 549 kts | 78° |
| 2026-05-06 00:08 | -19.37648 | -158.51861 | 46952 ft | 549 kts | 78° |
| 2026-05-06 00:09 | -19.36207 | -158.43906 | 46953 ft | 549 kts | 78° |
| 2026-05-06 00:09 | -19.34764 | -158.35961 | 46954 ft | 549 kts | 78° |
| 2026-05-06 00:10 | -19.33317 | -158.28015 | 46957 ft | 549 kts | 78° |
| 2026-05-06 00:10 | -19.31867 | -158.20068 | 46956 ft | 549 kts | 78° |
| 2026-05-06 00:11 | -19.30415 | -158.12135 | 46957 ft | 548 kts | 78° |
| 2026-05-06 00:11 | -19.28970 | -158.04260 | 46955 ft | 548 kts | 78° |
| 2026-05-06 00:12 | -19.27512 | -157.96331 | 46954 ft | 548 kts | 78° |
| 2026-05-06 00:12 | -19.26052 | -157.88416 | 46953 ft | 548 kts | 78° |
| 2026-05-06 00:13 | -19.24588 | -157.80493 | 46954 ft | 548 kts | 78° |
| 2026-05-06 00:13 | -19.23122 | -157.72583 | 46955 ft | 547 kts | 78° |
| 2026-05-06 00:14 | -19.21661 | -157.64722 | 46956 ft | 547 kts | 78° |
| 2026-05-06 00:14 | -19.20189 | -157.56820 | 46956 ft | 547 kts | 78° |
| 2026-05-06 00:15 | -19.18710 | -157.48895 | 46958 ft | 543 kts | 77° |
| 2026-05-06 00:15 | -19.17250 | -157.41093 | 46956 ft | 543 kts | 77° |
| 2026-05-06 00:16 | -19.15781 | -157.33265 | 46958 ft | 542 kts | 77° |
| 2026-05-06 00:16 | -19.14309 | -157.25440 | 46956 ft | 542 kts | 77° |
| 2026-05-06 00:17 | -19.12839 | -157.17638 | 46960 ft | 540 kts | 77° |
| 2026-05-06 00:17 | -19.11368 | -157.09858 | 46963 ft | 539 kts | 77° |
| 2026-05-06 00:18 | -19.09898 | -157.02097 | 46958 ft | 538 kts | 77° |
| 2026-05-06 00:18 | -19.08429 | -156.94325 | 46957 ft | 538 kts | 77° |
| 2026-05-06 00:19 | -19.06972 | -156.86560 | 46955 ft | 538 kts | 77° |
| 2026-05-06 00:19 | -19.05512 | -156.78852 | 46955 ft | 537 kts | 77° |
| 2026-05-06 00:20 | -19.04049 | -156.71117 | 46955 ft | 537 kts | 77° |
| 2026-05-06 00:20 | -19.02579 | -156.63379 | 46954 ft | 537 kts | 77° |
| 2026-05-06 00:21 | -19.01108 | -156.55645 | 46957 ft | 536 kts | 77° |
| 2026-05-06 00:21 | -18.99639 | -156.47942 | 46960 ft | 535 kts | 77° |
| 2026-05-06 00:22 | -18.98166 | -156.40238 | 46959 ft | 534 kts | 77° |
| 2026-05-06 00:22 | -18.96692 | -156.32541 | 46959 ft | 534 kts | 77° |
| 2026-05-06 00:23 | -18.95215 | -156.24849 | 46955 ft | 534 kts | 77° |
| 2026-05-06 00:23 | -18.93745 | -156.17216 | 46955 ft | 534 kts | 77° |
| 2026-05-06 00:24 | -18.92264 | -156.09540 | 46958 ft | 533 kts | 77° |
| 2026-05-06 00:24 | -18.90780 | -156.01865 | 46958 ft | 533 kts | 77° |
| 2026-05-06 00:25 | -18.89291 | -155.94184 | 46958 ft | 533 kts | 77° |
| 2026-05-06 00:25 | -18.87799 | -155.86506 | 46953 ft | 534 kts | 77° |
| 2026-05-06 00:26 | -18.86305 | -155.78831 | 46950 ft | 534 kts | 77° |
| 2026-05-06 00:26 | -18.84812 | -155.71184 | 46951 ft | 534 kts | 77° |
| 2026-05-06 00:27 | -18.83307 | -155.63490 | 46952 ft | 535 kts | 77° |
| 2026-05-06 00:27 | -18.81801 | -155.55804 | 46959 ft | 535 kts | 77° |
| 2026-05-06 00:28 | -18.80289 | -155.48112 | 46960 ft | 536 kts | 77° |
| 2026-05-06 00:28 | -18.79026 | -155.41698 | 46955 ft | 536 kts | 77° |
| 2026-05-06 00:29 | -18.77250 | -155.32699 | 46958 ft | 536 kts | 77° |
| 2026-05-06 00:29 | -18.75982 | -155.26290 | 46957 ft | 537 kts | 77° |
| 2026-05-06 00:30 | -18.74452 | -155.18570 | 46955 ft | 537 kts | 77° |
| 2026-05-06 00:30 | -18.72919 | -155.10852 | 46956 ft | 537 kts | 77° |
| 2026-05-06 00:31 | -18.71382 | -155.03130 | 46959 ft | 537 kts | 77° |
| 2026-05-06 00:31 | -18.69853 | -154.95466 | 46954 ft | 538 kts | 76° |
| 2026-05-06 00:32 | -18.68307 | -154.87738 | 46955 ft | 538 kts | 76° |
| 2026-05-06 00:32 | -18.66761 | -154.80025 | 46954 ft | 538 kts | 76° |
| 2026-05-06 00:33 | -18.65207 | -154.72288 | 46955 ft | 538 kts | 76° |
| 2026-05-06 00:33 | -18.63661 | -154.64610 | 46956 ft | 538 kts | 76° |
| 2026-05-06 00:34 | -18.62106 | -154.56900 | 46956 ft | 538 kts | 76° |
| 2026-05-06 00:34 | -18.60545 | -154.49181 | 46957 ft | 538 kts | 76° |
| 2026-05-06 00:35 | -18.58980 | -154.41459 | 46957 ft | 538 kts | 76° |
| 2026-05-06 00:35 | -18.57414 | -154.33747 | 46950 ft | 538 kts | 76° |
| 2026-05-06 00:36 | -18.55856 | -154.26093 | 46951 ft | 538 kts | 76° |
| 2026-05-06 00:36 | -18.54285 | -154.18392 | 46951 ft | 538 kts | 76° |
| 2026-05-06 00:37 | -18.52709 | -154.10685 | 46951 ft | 538 kts | 76° |
| 2026-05-06 00:37 | -18.51132 | -154.02984 | 46951 ft | 538 kts | 76° |
| 2026-05-06 00:38 | -18.49550 | -153.95281 | 46954 ft | 538 kts | 76° |
| 2026-05-06 00:38 | -18.47966 | -153.87582 | 46954 ft | 538 kts | 76° |
| 2026-05-06 00:39 | -18.46378 | -153.79881 | 46951 ft | 538 kts | 76° |
| 2026-05-06 00:39 | -18.44787 | -153.72183 | 46951 ft | 538 kts | 76° |
| 2026-05-06 00:40 | -18.43193 | -153.64484 | 46954 ft | 538 kts | 76° |
| 2026-05-06 00:40 | -18.41594 | -153.56779 | 46951 ft | 538 kts | 76° |
| 2026-05-06 00:41 | -18.40003 | -153.49126 | 46951 ft | 538 kts | 76° |
| 2026-05-06 00:41 | -18.38397 | -153.41421 | 46948 ft | 539 kts | 75° |
| 2026-05-06 00:42 | -18.36789 | -153.33720 | 46948 ft | 539 kts | 75° |
| 2026-05-06 00:42 | -18.35175 | -153.26012 | 46949 ft | 539 kts | 75° |
| 2026-05-06 00:43 | -18.33561 | -153.18312 | 46948 ft | 539 kts | 75° |
| 2026-05-06 00:43 | -18.31941 | -153.10604 | 46946 ft | 539 kts | 75° |
| 2026-05-06 00:44 | -18.30328 | -153.02948 | 46952 ft | 539 kts | 75° |
| 2026-05-06 00:44 | -18.28702 | -152.95241 | 46953 ft | 539 kts | 75° |
| 2026-05-06 00:45 | -18.27070 | -152.87525 | 46950 ft | 539 kts | 75° |
| 2026-05-06 00:45 | -18.25439 | -152.79828 | 46947 ft | 539 kts | 75° |
| 2026-05-06 00:46 | -18.23805 | -152.72135 | 46943 ft | 539 kts | 75° |
| 2026-05-06 00:46 | -18.22163 | -152.64419 | 46944 ft | 539 kts | 75° |
| 2026-05-06 00:47 | -18.20533 | -152.56773 | 46944 ft | 539 kts | 75° |
| 2026-05-06 00:47 | -18.18887 | -152.49073 | 46944 ft | 540 kts | 75° |
| 2026-05-06 00:48 | -18.17237 | -152.41367 | 46944 ft | 540 kts | 75° |
| 2026-05-06 00:48 | -18.15584 | -152.33663 | 46944 ft | 540 kts | 75° |
| 2026-05-06 00:49 | -18.13929 | -152.25964 | 46946 ft | 540 kts | 75° |
| 2026-05-06 00:49 | -18.12270 | -152.18261 | 46945 ft | 540 kts | 75° |
| 2026-05-06 00:50 | -18.10607 | -152.10559 | 46945 ft | 540 kts | 75° |
| 2026-05-06 00:50 | -18.08941 | -152.02859 | 46946 ft | 540 kts | 75° |
| 2026-05-06 00:51 | -18.07282 | -151.95202 | 46947 ft | 540 kts | 75° |
| 2026-05-06 00:51 | -18.05609 | -151.87498 | 46945 ft | 540 kts | 75° |
| 2026-05-06 00:52 | -18.03932 | -151.79796 | 46951 ft | 540 kts | 75° |
| 2026-05-06 00:52 | -18.01913 | -151.72214 | 46943 ft | 537 kts | 65° |
| 2026-05-06 00:53 | -17.98155 | -151.65517 | 46942 ft | 529 kts | 47° |
| 2026-05-06 00:53 | -17.92860 | -151.60345 | 46944 ft | 519 kts | 30° |
| 2026-05-06 00:54 | -17.86472 | -151.57021 | 46933 ft | 509 kts | 15° |
| 2026-05-06 00:54 | -17.79749 | -151.54774 | 46964 ft | 507 kts | 13° |
| 2026-05-06 00:55 | -17.73197 | -151.51939 | 46945 ft | 513 kts | 22° |
| 2026-05-06 00:55 | -17.66819 | -151.48557 | 46939 ft | 511 kts | 20° |
| 2026-05-06 00:56 | -17.60274 | -151.45650 | 46939 ft | 511 kts | 20° |
| 2026-05-06 00:56 | -17.53872 | -151.42480 | 46933 ft | 512 kts | 21° |
| 2026-05-06 00:57 | -17.47378 | -151.39464 | 46935 ft | 510 kts | 19° |
| 2026-05-06 00:57 | -17.40914 | -151.36361 | 46935 ft | 511 kts | 20° |
| 2026-05-06 00:58 | -17.34430 | -151.33298 | 46937 ft | 510 kts | 20° |
| 2026-05-06 00:58 | -17.27956 | -151.30227 | 46941 ft | 511 kts | 20° |
| 2026-05-06 00:58 | -17.24713 | -151.28681 | 46643 ft | 516 kts | 20° |
| 2026-05-06 00:59 | -17.21409 | -151.27125 | 45881 ft | 519 kts | 20° |
| 2026-05-06 00:59 | -17.18118 | -151.25572 | 45084 ft | 517 kts | 20° |
| 2026-05-06 00:59 | -17.14845 | -151.24018 | 44205 ft | 516 kts | 20° |
| 2026-05-06 00:59 | -17.11618 | -151.22489 | 43239 ft | 516 kts | 20° |
| 2026-05-06 01:00 | -17.08326 | -151.20938 | 42308 ft | 519 kts | 20° |
| 2026-05-06 01:00 | -17.04941 | -151.19652 | 41397 ft | 519 kts | 13° |
| 2026-05-06 01:00 | -17.01415 | -151.18812 | 40542 ft | 520 kts | 7° |
| 2026-05-06 01:00 | -16.97836 | -151.18211 | 39739 ft | 517 kts | 5° |
| 2026-05-06 01:01 | -16.94328 | -151.17730 | 38946 ft | 501 kts | 4° |
| 2026-05-06 01:01 | -16.90865 | -151.17308 | 38089 ft | 501 kts | 3° |
| 2026-05-06 01:01 | -16.87383 | -151.16915 | 37195 ft | 501 kts | 3° |
| 2026-05-06 01:01 | -16.83949 | -151.16551 | 36349 ft | 503 kts | 3° |
| 2026-05-06 01:02 | -16.80461 | -151.16198 | 35544 ft | 505 kts | 3° |
| 2026-05-06 01:02 | -16.76953 | -151.15854 | 34753 ft | 507 kts | 3° |
| 2026-05-06 01:02 | -16.73435 | -151.15519 | 33986 ft | 508 kts | 3° |
| 2026-05-06 01:02 | -16.69911 | -151.15193 | 33132 ft | 508 kts | 3° |
| 2026-05-06 01:03 | -16.66385 | -151.14922 | 32271 ft | 506 kts | 359° |
| 2026-05-06 01:03 | -16.62905 | -151.15368 | 31375 ft | 503 kts | 343° |
| 2026-05-06 01:03 | -16.59776 | -151.16917 | 30515 ft | 492 kts | 325° |
| 2026-05-06 01:03 | -16.57322 | -151.19266 | 29653 ft | 467 kts | 312° |
| 2026-05-06 01:04 | -16.55362 | -151.21862 | 28774 ft | 445 kts | 306° |
| 2026-05-06 01:04 | -16.53664 | -151.24429 | 27935 ft | 427 kts | 304° |
| 2026-05-06 01:04 | -16.52064 | -151.26969 | 27101 ft | 412 kts | 303° |
| 2026-05-06 01:04 | -16.50531 | -151.29435 | 26287 ft | 400 kts | 302° |
| 2026-05-06 01:05 | -16.49009 | -151.31881 | 25487 ft | 395 kts | 302° |
| 2026-05-06 01:05 | -16.46377 | -151.36068 | 24165 ft | 399 kts | 302° |
| 2026-05-06 01:05 | -16.44857 | -151.38459 | 23437 ft | 402 kts | 302° |
| 2026-05-06 01:06 | -16.43299 | -151.40892 | 22570 ft | 405 kts | 302° |
| 2026-05-06 01:06 | -16.41731 | -151.43338 | 21726 ft | 406 kts | 302° |
| 2026-05-06 01:06 | -16.40162 | -151.45788 | 20909 ft | 406 kts | 303° |
| 2026-05-06 01:06 | -16.38593 | -151.48250 | 20111 ft | 409 kts | 303° |
| 2026-05-06 01:07 | -16.37054 | -151.50676 | 19335 ft | 391 kts | 303° |
| 2026-05-06 01:07 | -16.35595 | -151.52986 | 18573 ft | 374 kts | 303° |
| 2026-05-06 01:07 | -16.34195 | -151.55212 | 17759 ft | 360 kts | 303° |
| 2026-05-06 01:07 | -16.32849 | -151.57368 | 16902 ft | 349 kts | 303° |
| 2026-05-06 01:08 | -16.31390 | -151.59328 | 16001 ft | 340 kts | 318° |
| 2026-05-06 01:08 | -16.29363 | -151.60446 | 15105 ft | 335 kts | 344° |
| 2026-05-06 01:08 | -16.27035 | -151.60456 | 14230 ft | 332 kts | 12° |
| 2026-05-06 01:08 | -16.25021 | -151.59407 | 13411 ft | 329 kts | 34° |
| 2026-05-06 01:09 | -16.23304 | -151.57884 | 12794 ft | 317 kts | 41° |
| 2026-05-06 01:09 | -16.21730 | -151.56341 | 12244 ft | 305 kts | 42° |
| 2026-05-06 01:09 | -16.20236 | -151.54822 | 11680 ft | 298 kts | 47° |
| 2026-05-06 01:09 | -16.19333 | -151.52907 | 10991 ft | 298 kts | 78° |
| 2026-05-06 01:10 | -16.19514 | -151.50798 | 10332 ft | 293 kts | 110° |
| 2026-05-06 01:10 | -16.20707 | -151.49136 | 9707 ft | 288 kts | 139° |
| 2026-05-06 01:10 | -16.22402 | -151.48071 | 9143 ft | 282 kts | 151° |
| 2026-05-06 01:10 | -16.24159 | -151.47167 | 8602 ft | 282 kts | 152° |
| 2026-05-06 01:11 | -16.25925 | -151.46285 | 8053 ft | 281 kts | 153° |
| 2026-05-06 01:11 | -16.27682 | -151.45410 | 7643 ft | 276 kts | 153° |
| 2026-05-06 01:11 | -16.29576 | -151.45087 | 7176 ft | 284 kts | 183° |
| 2026-05-06 01:11 | -16.31460 | -151.45686 | 6813 ft | 283 kts | 200° |
| 2026-05-06 01:12 | -16.33245 | -151.46539 | 6512 ft | 282 kts | 206° |
| 2026-05-06 01:12 | -16.34917 | -151.47617 | 6202 ft | 283 kts | 212° |
| 2026-05-06 01:12 | -16.36548 | -151.48759 | 5876 ft | 278 kts | 212° |
| 2026-05-06 01:12 | -16.38103 | -151.49871 | 5529 ft | 265 kts | 213° |
| 2026-05-06 01:13 | -16.39603 | -151.50958 | 5022 ft | 261 kts | 212° |
| 2026-05-06 01:13 | -16.41077 | -151.52044 | 4507 ft | 258 kts | 213° |
| 2026-05-06 01:13 | -16.42536 | -151.53117 | 3987 ft | 255 kts | 212° |
| 2026-05-06 01:13 | -16.43979 | -151.54187 | 3475 ft | 253 kts | 212° |
| 2026-05-06 01:14 | -16.46692 | -151.56234 | 2906 ft | 231 kts | 213° |
| 2026-05-06 01:14 | -16.47983 | -151.57222 | 2657 ft | 230 kts | 212° |
| 2026-05-06 01:14 | -16.48981 | -151.58517 | 2270 ft | 237 kts | 245° |
| 2026-05-06 01:15 | -16.49273 | -151.60212 | 2007 ft | 239 kts | 262° |
| 2026-05-06 01:15 | -16.49421 | -151.61924 | 1788 ft | 235 kts | 262° |
| 2026-05-06 01:15 | -16.49545 | -151.63599 | 1680 ft | 224 kts | 264° |
| 2026-05-06 01:15 | -16.49506 | -151.65134 | 1537 ft | 205 kts | 279° |
| 2026-05-06 01:16 | -16.49245 | -151.65980 | 1395 ft | 193 kts | 290° |
| 2026-05-06 01:16 | -16.48756 | -151.67274 | 1256 ft | 185 kts | 290° |
| 2026-05-06 01:16 | -16.48390 | -151.68263 | 1184 ft | 159 kts | 290° |
| 2026-05-06 01:17 | -16.48253 | -151.68639 | 1138 ft | 155 kts | 289° |
| 2026-05-06 01:18 | -16.47867 | -151.69671 | 1058 ft | 152 kts | 291° |
| 2026-05-06 01:18 | -16.47359 | -151.70638 | 894 ft | 154 kts | 303° |
| 2026-05-06 01:18 | -16.46758 | -151.71577 | 714 ft | 156 kts | 302° |
| 2026-05-06 01:18 | -16.46174 | -151.72525 | 557 ft | 156 kts | 306° |
| 2026-05-06 01:19 | -16.45565 | -151.73430 | 331 ft | 151 kts | 304° |
| 2026-05-06 01:19 | -16.44968 | -151.74328 | 106 ft | 151 kts | 306° |
| 2026-05-06 01:19 | -16.44397 | -151.75183 | 24 ft | 124 kts | 302° |
| 2026-05-06 01:19 | -16.44147 | -151.75573 | 26 ft | 24 kts | 305° |
| 2026-05-06 01:20 | -16.44078 | -151.75656 | 26 ft | 7 kts | 336° |
| 2026-05-06 01:20 | -16.44060 | -151.75682 | 26 ft | 4 kts | 226° |
| 2026-05-06 01:20 | -16.44079 | -151.75669 | 26 ft | 4 kts | 122° |
| 2026-05-06 01:20 | -16.44097 | -151.75640 | 26 ft | 6 kts | 123° |
| 2026-05-06 01:21 | -16.44128 | -151.75593 | 26 ft | 10 kts | 125° |
| 2026-05-06 01:21 | -16.44173 | -151.75525 | 26 ft | 13 kts | 125° |
| 2026-05-06 01:21 | -16.44230 | -151.75440 | 25 ft | 15 kts | 124° |
| 2026-05-06 01:21 | -16.44287 | -151.75352 | 25 ft | 14 kts | 124° |
| 2026-05-06 01:22 | -16.44343 | -151.75275 | 24 ft | 9 kts | 131° |
| 2026-05-06 01:22 | -16.44352 | -151.75267 | 24 ft | 0 kts | 141° |
| 2026-05-06 01:23 | -16.44356 | -151.75264 | 25 ft | 3 kts | 149° |
| 2026-05-06 01:23 | -16.44402 | -151.75273 | 22 ft | 9 kts | 214° |
| 2026-05-06 01:23 | -16.44409 | -151.75279 | 22 ft | 0 kts | 214° |
| 2026-05-06 01:24 | -16.44419 | -151.75286 | 22 ft | 6 kts | 214° |
| 2026-05-06 01:25 | -16.44443 | -151.75304 | 20 ft | 3 kts | 221° |
| 2026-05-06 01:25 | -16.44474 | -151.75322 | 11 ft | 0 kts | 194° |
| 2026-05-06 01:26 | -16.44534 | -151.75325 | 11 ft | 0 kts | 134° |
| 2026-05-06 01:26 | -16.44536 | -151.75325 | 11 ft | 1 kts | 164° |
| 2026-05-06 01:26 | -16.44545 | -151.75360 | 11 ft | 12 kts | 281° |
| 2026-05-06 01:26 | -16.44523 | -151.75420 | 11 ft | 6 kts | 302° |
| 2026-05-06 01:27 | -16.44497 | -151.75469 | 11 ft | 6 kts | 262° |
| 2026-05-06 01:27 | -16.44514 | -151.75488 | 11 ft | 2 kts | 214° |
| 2026-05-06 01:27 | -16.44520 | -151.75490 | 11 ft | 0 kts | 184° |
| 2026-05-06 01:27 | -16.44523 | -151.75488 | 11 ft | 0 kts | 150° |